createdAt,value
2024-02-29T00:04:15.695Z,7.07
2024-02-29T00:09:17.290Z,7.20
2024-02-29T00:14:18.768Z,7.27
2024-02-29T00:19:20.225Z,7.20
2024-02-29T00:24:21.671Z,7.70
2024-02-29T00:29:23.101Z,6.40
2024-02-29T00:34:24.577Z,7.73
2024-02-29T00:39:26.024Z,7.23
2024-02-29T00:44:27.489Z,6.43
2024-02-29T00:49:28.927Z,7.70
2024-02-29T00:54:30.435Z,5.87
2024-02-29T00:59:31.927Z,6.13
2024-02-29T01:04:33.404Z,5.30
2024-02-29T01:09:34.891Z,5.80
2024-02-29T01:14:36.384Z,5.87
2024-02-29T01:19:37.884Z,6.83
2024-02-29T01:24:39.367Z,6.43
2024-02-29T01:29:40.930Z,5.60
2024-02-29T01:34:42.387Z,5.90
2024-02-29T01:39:43.867Z,6.27
2024-02-29T01:44:46.470Z,5.43
2024-02-29T01:49:47.922Z,5.57
2024-02-29T01:54:49.398Z,6.40
2024-02-29T01:59:50.914Z,5.40
2024-02-29T02:04:52.395Z,6.10
2024-02-29T02:09:53.855Z,4.83
2024-02-29T02:14:55.403Z,5.10
2024-02-29T02:19:56.985Z,5.73
2024-02-29T02:24:58.485Z,5.50
2024-02-29T02:29:59.930Z,5.27
2024-02-29T02:35:01.397Z,5.00
2024-02-29T02:40:02.916Z,5.30
2024-02-29T02:45:04.440Z,5.00
2024-02-29T02:50:05.983Z,5.30
2024-02-29T02:55:07.519Z,5.20
2024-02-29T03:00:08.981Z,4.70
2024-02-29T03:05:10.625Z,5.17
2024-02-29T03:10:12.352Z,4.00
2024-02-29T03:15:13.882Z,4.70
2024-02-29T03:20:15.334Z,5.33
2024-02-29T03:25:16.867Z,4.60
2024-02-29T03:30:18.351Z,4.67
2024-02-29T03:35:19.791Z,4.60
2024-02-29T03:40:21.296Z,5.13
2024-02-29T03:45:22.855Z,4.80
2024-02-29T03:50:24.300Z,4.70
2024-02-29T03:55:25.780Z,4.00
2024-02-29T04:00:27.269Z,4.53
2024-02-29T04:05:28.715Z,4.13
2024-02-29T04:10:30.158Z,4.60
2024-02-29T04:15:31.628Z,4.30
2024-02-29T04:20:33.088Z,4.93
2024-02-29T04:25:34.567Z,4.90
2024-02-29T04:30:36.078Z,4.00
2024-02-29T04:35:37.563Z,4.63
2024-02-29T04:40:39.019Z,4.17
2024-02-29T04:45:40.516Z,3.70
2024-02-29T04:50:42.006Z,3.73
2024-02-29T04:55:43.447Z,4.10
2024-02-29T05:00:45.029Z,3.77
2024-02-29T05:05:46.511Z,3.80
2024-02-29T05:10:47.989Z,4.17
2024-02-29T05:15:49.491Z,4.97
2024-02-29T05:20:50.947Z,3.57
2024-02-29T05:25:52.395Z,4.13
2024-02-29T05:30:53.884Z,4.23
2024-02-29T05:35:55.354Z,4.23
2024-02-29T05:40:56.978Z,3.73
2024-02-29T05:45:58.488Z,3.77
2024-02-29T05:50:59.955Z,4.20
2024-02-29T05:56:01.447Z,3.77
2024-02-29T06:01:02.987Z,3.60
2024-02-29T06:06:04.516Z,3.67
2024-02-29T06:11:06.093Z,3.90
2024-02-29T06:16:07.644Z,3.07
2024-02-29T06:21:09.109Z,3.50
2024-02-29T06:26:10.562Z,3.90
2024-02-29T06:31:12.062Z,3.80
2024-02-29T06:36:13.543Z,3.30
2024-02-29T06:41:15.072Z,4.03
2024-02-29T06:46:16.641Z,3.60
2024-02-29T06:51:18.156Z,4.00
2024-02-29T06:56:19.682Z,3.83
2024-02-29T07:01:21.375Z,3.20
2024-02-29T07:06:22.973Z,3.30
2024-02-29T07:11:24.481Z,4.00
2024-02-29T07:16:25.991Z,2.67
2024-02-29T07:21:27.458Z,3.40
2024-02-29T07:26:28.884Z,3.40
2024-02-29T07:31:30.428Z,3.30
2024-02-29T07:36:31.952Z,3.40
2024-02-29T07:41:33.439Z,3.10
2024-02-29T07:46:34.885Z,2.90
2024-02-29T07:51:36.383Z,3.37
2024-02-29T07:56:37.873Z,3.57
2024-02-29T08:01:39.376Z,3.43
2024-02-29T08:06:40.918Z,3.03
2024-02-29T08:11:42.395Z,3.10
2024-02-29T08:16:44.303Z,3.57
2024-02-29T08:21:45.816Z,3.53
2024-02-29T08:26:47.268Z,3.03
2024-02-29T08:31:48.788Z,3.30
2024-02-29T08:36:50.350Z,3.20
2024-02-29T08:41:51.821Z,3.50
2024-02-29T08:46:53.404Z,3.80
2024-02-29T08:51:54.902Z,3.30
2024-02-29T08:56:56.391Z,3.10
2024-02-29T09:01:57.998Z,3.60
2024-02-29T09:06:59.721Z,3.43
2024-02-29T09:12:01.319Z,3.80
2024-02-29T09:17:02.922Z,3.77
2024-02-29T09:22:04.444Z,4.10
2024-02-29T09:27:05.967Z,4.07
2024-02-29T09:32:07.478Z,4.20
2024-02-29T09:37:08.996Z,3.10
2024-02-29T09:42:13.920Z,3.90
2024-02-29T09:47:16.607Z,3.90
2024-02-29T09:52:18.191Z,4.20
2024-02-29T09:57:19.742Z,4.03
2024-02-29T10:02:21.324Z,4.07
2024-02-29T10:07:22.847Z,5.40
2024-02-29T10:12:24.448Z,6.40
2024-02-29T10:17:26.038Z,5.70
2024-02-29T10:22:27.574Z,5.80
2024-02-29T10:27:29.086Z,7.27
2024-02-29T10:32:30.564Z,6.30
2024-02-29T10:37:32.049Z,7.40
2024-02-29T10:42:52.394Z,7.27
2024-02-29T10:48:12.664Z,6.33
2024-02-29T10:53:32.912Z,6.20
2024-02-29T10:58:53.119Z,5.77
2024-02-29T11:04:13.384Z,5.80
2024-02-29T11:09:33.586Z,4.93
2024-02-29T11:14:53.831Z,4.33
2024-02-29T11:20:14.071Z,5.20
2024-02-29T11:25:34.290Z,4.10
2024-02-29T11:30:57.798Z,5.13
2024-02-29T11:36:17.695Z,4.80
2024-02-29T11:41:37.979Z,4.30
2024-02-29T11:46:58.228Z,4.37
2024-02-29T11:52:18.436Z,4.23
2024-02-29T11:57:38.837Z,4.20
2024-02-29T12:02:58.974Z,4.10
2024-02-29T12:08:19.177Z,4.53
2024-02-29T12:13:39.332Z,4.30
2024-02-29T12:18:59.722Z,4.30
2024-02-29T12:24:20.062Z,4.27
2024-02-29T12:29:40.483Z,4.10
2024-02-29T12:35:00.830Z,4.40
2024-02-29T12:40:21.360Z,3.90
2024-02-29T12:45:41.588Z,3.87
2024-02-29T12:51:01.991Z,3.90
2024-02-29T12:56:22.245Z,3.70
2024-02-29T13:01:42.619Z,3.60
2024-02-29T13:07:02.836Z,4.00
2024-02-29T13:12:23.084Z,3.83
2024-02-29T13:17:43.316Z,4.17
2024-02-29T13:23:03.624Z,4.30
2024-02-29T13:28:23.756Z,2.70
2024-02-29T13:33:44.160Z,2.87
2024-02-29T13:39:04.427Z,3.80
2024-02-29T13:44:24.707Z,3.00
2024-02-29T13:49:45.026Z,3.57
2024-02-29T13:55:05.298Z,3.70
2024-02-29T14:00:25.468Z,3.07
2024-02-29T14:05:45.684Z,3.67
2024-02-29T14:11:06.034Z,3.40
2024-02-29T14:16:26.260Z,3.10
2024-02-29T14:21:46.572Z,2.93
2024-02-29T14:27:06.912Z,3.00
2024-02-29T14:32:27.084Z,2.80
2024-02-29T14:37:47.211Z,3.10
2024-02-29T14:43:07.518Z,3.53
2024-02-29T14:48:27.767Z,2.63
2024-02-29T14:53:48.095Z,2.77
2024-02-29T14:59:08.595Z,2.60
2024-02-29T15:04:28.846Z,3.40
2024-02-29T15:09:49.145Z,3.13
2024-02-29T15:15:09.371Z,2.80
2024-02-29T15:20:29.686Z,2.90
2024-02-29T15:25:49.894Z,2.70
2024-02-29T15:31:10.230Z,2.57
2024-02-29T15:36:30.372Z,2.37
2024-02-29T15:41:50.762Z,2.60
2024-02-29T15:47:11.105Z,2.30
2024-02-29T15:52:31.373Z,2.87
2024-02-29T15:57:51.562Z,2.60
2024-02-29T16:03:11.893Z,2.63
2024-02-29T16:08:32.018Z,2.90
2024-02-29T16:13:52.265Z,2.80
2024-02-29T16:19:12.534Z,2.33
2024-02-29T16:24:32.767Z,2.27
2024-02-29T16:29:53.000Z,2.43
2024-02-29T16:35:13.253Z,2.00
2024-02-29T16:40:33.502Z,2.43
2024-02-29T16:45:53.732Z,2.20
2024-02-29T16:51:13.857Z,2.47
2024-02-29T16:56:34.318Z,2.67
2024-02-29T17:01:54.687Z,2.40
2024-02-29T17:07:14.711Z,2.07
2024-02-29T17:12:34.869Z,2.37
2024-02-29T17:17:55.191Z,2.50
2024-02-29T17:23:15.431Z,2.40
2024-02-29T17:28:35.927Z,2.20
2024-02-29T17:33:56.206Z,2.10
2024-02-29T17:39:16.530Z,2.20
2024-02-29T17:44:36.843Z,2.10
2024-02-29T17:49:57.057Z,2.10
2024-02-29T17:55:17.401Z,2.27
2024-02-29T18:00:37.594Z,2.03
2024-02-29T18:05:57.750Z,2.20
2024-02-29T18:11:18.245Z,1.93
2024-02-29T18:16:38.539Z,1.90
2024-02-29T18:21:58.952Z,2.70
2024-02-29T18:27:19.181Z,2.47
2024-02-29T18:32:39.573Z,2.30
2024-02-29T18:37:59.615Z,2.23
2024-02-29T18:43:19.942Z,2.30
2024-02-29T18:48:40.311Z,2.93
2024-02-29T18:54:00.568Z,2.60
2024-02-29T18:59:20.861Z,2.70
2024-02-29T19:04:41.122Z,2.67
2024-02-29T19:10:01.299Z,2.30
2024-02-29T19:15:21.435Z,2.03
2024-02-29T19:20:41.720Z,2.77
2024-02-29T19:26:01.978Z,2.83
2024-02-29T19:31:22.316Z,2.40
2024-02-29T19:36:42.750Z,3.40
2024-02-29T19:42:02.790Z,3.10
2024-02-29T19:47:23.060Z,3.00
2024-02-29T19:52:43.309Z,3.23
2024-02-29T19:58:03.635Z,3.50
2024-02-29T20:03:23.729Z,3.13
2024-02-29T20:08:44.021Z,2.83
2024-02-29T20:14:04.327Z,2.90
2024-02-29T20:19:24.470Z,2.70
2024-02-29T20:24:44.689Z,2.90
2024-02-29T20:30:04.748Z,3.40
2024-02-29T20:35:24.999Z,2.73
2024-02-29T20:40:45.152Z,3.60
2024-02-29T20:46:05.339Z,3.40
2024-02-29T20:51:25.400Z,2.77
2024-02-29T20:56:45.700Z,3.30
2024-02-29T21:02:06.110Z,2.70
2024-02-29T21:07:26.595Z,2.93
2024-02-29T21:12:46.549Z,3.40
2024-02-29T21:18:06.701Z,3.00
2024-02-29T21:23:26.845Z,2.77
2024-02-29T21:28:46.994Z,3.13
2024-02-29T21:34:07.344Z,3.40
2024-02-29T21:39:39.893Z,2.83
2024-02-29T21:45:04.255Z,2.80
2024-02-29T21:50:24.501Z,2.73
2024-02-29T21:55:44.814Z,3.00
2024-02-29T22:01:05.096Z,2.77
2024-02-29T22:06:25.273Z,2.67
2024-02-29T22:11:45.503Z,2.70
2024-02-29T22:17:05.649Z,3.00
2024-02-29T22:22:25.943Z,3.10
2024-02-29T22:27:46.152Z,2.80
2024-02-29T22:33:06.419Z,3.47
2024-02-29T22:38:26.590Z,2.83
2024-02-29T22:43:46.992Z,2.70
2024-02-29T22:49:07.175Z,3.00
2024-02-29T22:54:27.364Z,3.20
2024-02-29T22:59:47.516Z,3.00
2024-02-29T23:05:07.827Z,3.13
2024-02-29T23:10:28.155Z,3.10
2024-02-29T23:15:48.309Z,3.20
2024-02-29T23:21:08.444Z,3.07
2024-02-29T23:26:28.612Z,3.33
2024-02-29T23:31:48.793Z,3.10
2024-02-29T23:37:09.100Z,2.87
2024-02-29T23:42:29.293Z,3.43
2024-02-29T23:47:49.515Z,3.00
2024-02-29T23:53:09.722Z,3.07
2024-02-29T23:58:30.155Z,3.40
